createdAt,value
2016-09-13T00:00:22.041Z,1010
2016-09-13T00:01:22.028Z,1009.98
2016-09-13T00:02:22.019Z,1009.97
2016-09-13T00:03:22.000Z,1009.97
2016-09-13T00:04:21.985Z,1009.99
2016-09-13T00:05:21.972Z,1009.97
2016-09-13T00:06:21.957Z,1009.96
2016-09-13T00:07:21.943Z,1009.98
2016-09-13T00:08:21.927Z,1009.97
2016-09-13T00:09:21.918Z,1009.95
2016-09-13T00:10:21.899Z,1009.92
2016-09-13T00:11:21.884Z,1009.94
2016-09-13T00:12:21.871Z,1009.92
2016-09-13T00:13:21.860Z,1009.89
2016-09-13T00:14:21.843Z,1009.88
2016-09-13T00:15:21.827Z,1009.87
2016-09-13T00:16:21.814Z,1009.91
2016-09-13T00:17:21.799Z,1009.89
2016-09-13T00:18:21.785Z,1009.89
2016-09-13T00:19:21.771Z,1009.92
2016-09-13T00:20:21.753Z,1009.86
2016-09-13T00:21:21.739Z,1009.9
2016-09-13T00:22:21.727Z,1009.85
2016-09-13T00:23:21.712Z,1009.84
2016-09-13T00:24:21.698Z,1009.82
2016-09-13T00:25:21.681Z,1009.85
2016-09-13T00:26:21.668Z,1009.87
2016-09-13T00:27:21.654Z,1009.86
2016-09-13T00:28:21.640Z,1009.83
2016-09-13T00:29:21.624Z,1009.83
2016-09-13T00:30:21.609Z,1009.83
2016-09-13T00:31:21.596Z,1009.81
2016-09-13T00:32:21.587Z,1009.81
2016-09-13T00:33:21.568Z,1009.84
2016-09-13T00:34:21.551Z,1009.83
2016-09-13T00:35:21.540Z,1009.85
2016-09-13T00:36:21.526Z,1009.82
2016-09-13T00:37:21.510Z,1009.86
2016-09-13T00:38:21.494Z,1009.81
2016-09-13T00:39:21.482Z,1009.81
2016-09-13T00:40:21.464Z,1009.81
2016-09-13T00:41:21.451Z,1009.82
2016-09-13T00:42:21.437Z,1009.79
2016-09-13T00:43:21.423Z,1009.82
2016-09-13T00:44:21.412Z,1009.8
2016-09-13T00:45:21.391Z,1009.8
2016-09-13T00:46:21.384Z,1009.79
2016-09-13T00:47:21.365Z,1009.79
2016-09-13T00:48:21.352Z,1009.8
2016-09-13T00:49:21.336Z,1009.81
2016-09-13T00:50:21.324Z,1009.8
2016-09-13T00:51:21.310Z,1009.82
2016-09-13T00:52:21.293Z,1009.81
2016-09-13T00:53:21.278Z,1009.81
2016-09-13T00:54:21.263Z,1009.76
2016-09-13T00:55:21.248Z,1009.78
2016-09-13T00:56:21.233Z,1009.81
2016-09-13T00:57:21.220Z,1009.79
2016-09-13T00:58:21.206Z,1009.8
2016-09-13T00:59:21.190Z,1009.76
2016-09-13T01:00:21.176Z,1009.79
2016-09-13T01:01:21.163Z,1009.78
2016-09-13T01:02:21.148Z,1009.78
2016-09-13T01:03:21.131Z,1009.78
2016-09-13T01:04:21.118Z,1009.8
2016-09-13T01:05:21.104Z,1009.79
2016-09-13T01:06:21.093Z,1009.8
2016-09-13T01:07:21.079Z,1009.78
2016-09-13T01:08:21.060Z,1009.75
2016-09-13T01:09:21.045Z,1009.75
2016-09-13T01:10:21.029Z,1009.74
2016-09-13T01:11:21.024Z,1009.73
2016-09-13T01:12:21.003Z,1009.74
2016-09-13T01:13:20.988Z,1009.75
2016-09-13T01:14:20.975Z,1009.81
2016-09-13T01:15:20.959Z,1009.77
2016-09-13T01:16:20.947Z,1009.76
2016-09-13T01:17:20.935Z,1009.81
2016-09-13T01:18:20.916Z,1009.76
2016-09-13T01:19:20.903Z,1009.73
2016-09-13T01:20:20.885Z,1009.75
2016-09-13T01:21:20.872Z,1009.75
2016-09-13T01:22:20.859Z,1009.74
2016-09-13T01:23:20.844Z,1009.72
2016-09-13T01:24:20.828Z,1009.73
2016-09-13T01:25:20.813Z,1009.71
2016-09-13T01:26:20.801Z,1009.69
2016-09-13T01:27:20.787Z,1009.68
2016-09-13T01:28:20.772Z,1009.7
2016-09-13T01:29:20.757Z,1009.69
2016-09-13T01:30:20.741Z,1009.7
2016-09-13T01:31:20.724Z,1009.69
2016-09-13T01:32:20.713Z,1009.69
2016-09-13T01:33:20.699Z,1009.67
2016-09-13T01:34:20.685Z,1009.65
2016-09-13T01:35:20.669Z,1009.69
2016-09-13T01:36:20.661Z,1009.68
2016-09-13T01:37:20.641Z,1009.68
2016-09-13T01:38:20.626Z,1009.65
2016-09-13T01:39:20.612Z,1009.67
2016-09-13T01:40:20.596Z,1009.63
2016-09-13T01:41:20.588Z,1009.68
2016-09-13T01:42:20.572Z,1009.66
2016-09-13T01:43:20.556Z,1009.68
2016-09-13T01:44:20.540Z,1009.63
2016-09-13T01:45:20.525Z,1009.65
2016-09-13T01:46:20.516Z,1009.68
2016-09-13T01:47:20.496Z,1009.68
2016-09-13T01:48:20.483Z,1009.66
2016-09-13T01:49:20.469Z,1009.68
2016-09-13T01:50:20.457Z,1009.69
2016-09-13T01:51:20.440Z,1009.71
2016-09-13T01:52:20.424Z,1009.69
2016-09-13T01:53:20.410Z,1009.68
2016-09-13T01:54:20.396Z,1009.71
2016-09-13T01:55:20.379Z,1009.7
2016-09-13T01:56:20.370Z,1009.67
2016-09-13T01:57:20.350Z,1009.63
2016-09-13T01:58:20.336Z,1009.59
2016-09-13T01:59:20.325Z,1009.63
2016-09-13T02:00:20.309Z,1009.61
2016-09-13T02:01:20.293Z,1009.62
2016-09-13T02:02:20.276Z,1009.65
2016-09-13T02:03:20.265Z,1009.61
2016-09-13T02:04:20.249Z,1009.65
2016-09-13T02:05:20.235Z,1009.64
2016-09-13T02:06:20.232Z,1009.66
2016-09-13T02:07:20.207Z,1009.65
2016-09-13T02:08:20.192Z,1009.62
2016-09-13T02:09:20.176Z,1009.62
2016-09-13T02:10:20.163Z,1009.66
2016-09-13T02:11:20.150Z,1009.62
2016-09-13T02:12:20.134Z,1009.65
2016-09-13T02:13:20.118Z,1009.59
2016-09-13T02:14:20.106Z,1009.63
2016-09-13T02:15:20.090Z,1009.66
2016-09-13T02:16:20.075Z,1009.64
2016-09-13T02:17:20.066Z,1009.6
2016-09-13T02:18:20.046Z,1009.59
2016-09-13T02:19:20.033Z,1009.61
2016-09-13T02:20:20.018Z,1009.61
2016-09-13T02:21:20.004Z,1009.59
2016-09-13T02:22:19.988Z,1009.6
2016-09-13T02:23:19.975Z,1009.61
2016-09-13T02:24:19.959Z,1009.6
2016-09-13T02:25:19.951Z,1009.59
2016-09-13T02:26:19.932Z,1009.56
2016-09-13T02:27:19.918Z,1009.56
2016-09-13T02:28:19.903Z,1009.57
2016-09-13T02:29:19.888Z,1009.54
2016-09-13T02:30:19.871Z,1009.52
2016-09-13T02:31:19.860Z,1009.54
2016-09-13T02:32:19.863Z,1009.55
2016-09-13T02:33:19.827Z,1009.49
2016-09-13T02:34:19.814Z,1009.54
2016-09-13T02:35:19.799Z,1009.51
2016-09-13T02:36:19.785Z,1009.5
2016-09-13T02:37:19.770Z,1009.51
2016-09-13T02:38:19.755Z,1009.5
2016-09-13T02:39:19.742Z,1009.5
2016-09-13T02:40:19.728Z,1009.45
2016-09-13T02:41:19.712Z,1009.46
2016-09-13T02:42:19.698Z,1009.47
2016-09-13T02:43:19.685Z,1009.46
2016-09-13T02:44:19.667Z,1009.47
2016-09-13T02:45:19.654Z,1009.45
2016-09-13T02:46:19.639Z,1009.47
2016-09-13T02:47:19.625Z,1009.44
2016-09-13T02:48:19.616Z,1009.44
2016-09-13T02:49:19.593Z,1009.49
2016-09-13T02:50:19.582Z,1009.44
2016-09-13T02:51:19.567Z,1009.49
2016-09-13T02:52:19.554Z,1009.49
2016-09-13T02:53:19.545Z,1009.47
2016-09-13T02:54:19.526Z,1009.47
2016-09-13T02:55:19.512Z,1009.47
2016-09-13T02:56:19.495Z,1009.49
2016-09-13T02:57:19.480Z,1009.45
2016-09-13T02:58:19.469Z,1009.5
2016-09-13T02:59:19.451Z,1009.5
2016-09-13T03:00:19.436Z,1009.47
2016-09-13T03:01:19.423Z,1009.44
2016-09-13T03:02:19.412Z,1009.43
2016-09-13T03:03:19.393Z,1009.48
2016-09-13T03:04:19.379Z,1009.5
2016-09-13T03:05:19.364Z,1009.44
2016-09-13T03:06:19.349Z,1009.45
2016-09-13T03:07:19.334Z,1009.39
2016-09-13T03:08:19.320Z,1009.42
2016-09-13T03:09:19.306Z,1009.43
2016-09-13T03:10:19.290Z,1009.38
2016-09-13T03:11:19.275Z,1009.4
2016-09-13T03:12:19.267Z,1009.42
2016-09-13T03:13:19.247Z,1009.38
2016-09-13T03:14:19.230Z,1009.39
2016-09-13T03:15:19.217Z,1009.39
2016-09-13T03:16:19.201Z,1009.39
2016-09-13T03:17:19.190Z,1009.42
2016-09-13T03:18:19.176Z,1009.36
2016-09-13T03:19:19.161Z,1009.36
2016-09-13T03:20:19.145Z,1009.36
2016-09-13T03:21:19.131Z,1009.34
2016-09-13T03:22:19.143Z,1009.34
2016-09-13T03:23:19.107Z,1009.28
2016-09-13T03:24:19.087Z,1009.31
2016-09-13T03:25:19.073Z,1009.31
2016-09-13T03:26:19.059Z,1009.29
2016-09-13T03:27:19.047Z,1009.3
2016-09-13T03:28:19.036Z,1009.3
2016-09-13T03:29:19.015Z,1009.28
2016-09-13T03:30:19.000Z,1009.31
2016-09-13T03:31:18.988Z,1009.25
2016-09-13T03:32:18.971Z,1009.26
2016-09-13T03:33:18.958Z,1009.25
2016-09-13T03:34:18.943Z,1009.28
2016-09-13T03:35:18.925Z,1009.22
2016-09-13T03:36:18.912Z,1009.26
2016-09-13T03:37:18.903Z,1009.24
2016-09-13T03:38:18.885Z,1009.23
2016-09-13T03:39:18.874Z,1009.2
2016-09-13T03:40:18.853Z,1009.17
2016-09-13T03:41:18.845Z,1009.18
2016-09-13T03:42:18.825Z,1009.2
2016-09-13T03:43:18.810Z,1009.2
2016-09-13T03:44:18.794Z,1009.18
2016-09-13T03:45:18.831Z,1009.18
2016-09-13T03:46:18.768Z,1009.16
2016-09-13T03:47:18.755Z,1009.19
2016-09-13T03:48:18.736Z,1009.19
2016-09-13T03:49:18.724Z,1009.18
2016-09-13T03:50:18.710Z,1009.18
2016-09-13T03:51:18.694Z,1009.19
2016-09-13T03:52:18.679Z,1009.21
2016-09-13T03:53:18.664Z,1009.16
2016-09-13T03:54:18.650Z,1009.16
2016-09-13T03:55:18.634Z,1009.18
2016-09-13T03:56:18.622Z,1009.17
2016-09-13T03:57:18.606Z,1009.14
2016-09-13T03:58:18.590Z,1009.16
2016-09-13T03:59:18.579Z,1009.16
2016-09-13T04:00:18.568Z,1009.16
2016-09-13T04:01:18.551Z,1009.16
2016-09-13T04:02:18.533Z,1009.17
2016-09-13T04:03:18.518Z,1009.12
2016-09-13T04:04:18.509Z,1009.16
2016-09-13T04:05:18.489Z,1009.19
2016-09-13T04:06:18.472Z,1009.17
2016-09-13T04:07:18.461Z,1009.16
2016-09-13T04:08:18.449Z,1009.16
2016-09-13T04:09:18.430Z,1009.15
2016-09-13T04:10:18.415Z,1009.16
2016-09-13T04:11:18.401Z,1009.17
2016-09-13T04:12:18.385Z,1009.17
2016-09-13T04:13:18.371Z,1009.12
2016-09-13T04:14:18.359Z,1009.15
2016-09-13T04:15:18.343Z,1009.14
2016-09-13T04:16:18.328Z,1009.13
2016-09-13T04:17:18.313Z,1009.1
2016-09-13T04:18:18.299Z,1009.12
2016-09-13T04:19:18.284Z,1009.11
2016-09-13T04:20:18.275Z,1009.09
2016-09-13T04:21:18.255Z,1009.15
2016-09-13T04:22:18.241Z,1009.12
2016-09-13T04:23:18.225Z,1009.12
2016-09-13T04:24:18.211Z,1009.13
2016-09-13T04:25:18.196Z,1009.15
2016-09-13T04:26:18.180Z,1009.15
2016-09-13T04:27:18.167Z,1009.16
2016-09-13T04:28:18.155Z,1009.17
2016-09-13T04:29:18.136Z,1009.16
2016-09-13T04:30:18.125Z,1009.15
2016-09-13T04:31:18.108Z,1009.16
2016-09-13T04:32:18.096Z,1009.16
2016-09-13T04:33:18.079Z,1009.16
2016-09-13T04:34:18.064Z,1009.18
2016-09-13T04:35:18.050Z,1009.18
2016-09-13T04:36:18.035Z,1009.19
2016-09-13T04:37:18.019Z,1009.14
2016-09-13T04:38:18.006Z,1009.13
2016-09-13T04:39:17.991Z,1009.2
2016-09-13T04:40:17.974Z,1009.17
2016-09-13T04:41:17.971Z,1009.16
2016-09-13T04:42:17.945Z,1009.14
2016-09-13T04:43:17.933Z,1009.12
2016-09-13T04:44:17.914Z,1009.11
2016-09-13T04:45:17.901Z,1009.11
2016-09-13T04:46:17.884Z,1009.1
2016-09-13T04:47:17.872Z,1009.12
2016-09-13T04:48:17.860Z,1009.09
2016-09-13T04:49:17.841Z,1009.14
2016-09-13T04:50:17.829Z,1009.14
2016-09-13T04:51:17.811Z,1009.13
2016-09-13T04:52:17.798Z,1009.13
2016-09-13T04:53:17.789Z,1009.17
2016-09-13T04:54:17.769Z,1009.13
2016-09-13T04:55:17.754Z,1009.17
2016-09-13T04:56:17.739Z,1009.15
2016-09-13T04:57:17.724Z,1009.16
2016-09-13T04:58:17.707Z,1009.2
2016-09-13T04:59:17.696Z,1009.2
2016-09-13T05:00:17.679Z,1009.17
2016-09-13T05:01:17.667Z,1009.15
2016-09-13T05:02:17.650Z,1009.21
2016-09-13T05:03:17.633Z,1009.19
2016-09-13T05:04:17.620Z,1009.22
2016-09-13T05:05:17.607Z,1009.24
2016-09-13T05:06:17.592Z,1009.23
2016-09-13T05:07:17.572Z,1009.24
2016-09-13T05:08:17.558Z,1009.25
2016-09-13T05:09:17.546Z,1009.24
2016-09-13T05:10:17.532Z,1009.26
2016-09-13T05:11:17.517Z,1009.28
2016-09-13T05:12:17.501Z,1009.28
2016-09-13T05:13:17.484Z,1009.27
2016-09-13T05:14:17.471Z,1009.29
2016-09-13T05:15:17.455Z,1009.32
2016-09-13T05:16:17.451Z,1009.34
2016-09-13T05:17:17.430Z,1009.31
2016-09-13T05:18:17.411Z,1009.34
2016-09-13T05:19:17.397Z,1009.29
2016-09-13T05:20:17.383Z,1009.31
2016-09-13T05:21:17.366Z,1009.32
2016-09-13T05:22:17.352Z,1009.32
2016-09-13T05:23:17.342Z,1009.32
2016-09-13T05:24:17.328Z,1009.32
2016-09-13T05:25:17.308Z,1009.33
2016-09-13T05:26:17.294Z,1009.28
2016-09-13T05:27:17.280Z,1009.3
2016-09-13T05:28:17.265Z,1009.37
2016-09-13T05:29:17.250Z,1009.38
2016-09-13T05:30:17.235Z,1009.34
2016-09-13T05:31:17.219Z,1009.32
2016-09-13T05:32:17.206Z,1009.31
2016-09-13T05:33:17.192Z,1009.33
2016-09-13T05:34:17.180Z,1009.35
2016-09-13T05:35:17.159Z,1009.38
2016-09-13T05:36:17.145Z,1009.36
2016-09-13T05:37:17.133Z,1009.36
2016-09-13T05:38:17.117Z,1009.35
2016-09-13T05:39:17.100Z,1009.37
2016-09-13T05:40:17.086Z,1009.39
2016-09-13T05:41:17.073Z,1009.37
2016-09-13T05:42:17.068Z,1009.41
2016-09-13T05:43:17.042Z,1009.4
2016-09-13T05:44:17.026Z,1009.45
2016-09-13T05:45:17.014Z,1009.45
2016-09-13T05:46:16.999Z,1009.42
2016-09-13T05:47:16.984Z,1009.43
2016-09-13T05:48:16.969Z,1009.43
2016-09-13T05:49:16.955Z,1009.41
2016-09-13T05:50:16.940Z,1009.43
2016-09-13T05:51:16.924Z,1009.45
2016-09-13T05:52:16.908Z,1009.42
2016-09-13T05:53:16.896Z,1009.45
2016-09-13T05:54:16.880Z,1009.46
2016-09-13T05:55:16.864Z,1009.48
2016-09-13T05:56:16.851Z,1009.44
2016-09-13T05:57:16.836Z,1009.49
2016-09-13T05:58:16.820Z,1009.46
2016-09-13T05:59:16.808Z,1009.44
2016-09-13T06:00:16.792Z,1009.47
2016-09-13T06:01:16.776Z,1009.46
2016-09-13T06:02:16.759Z,1009.45
2016-09-13T06:03:16.748Z,1009.44
2016-09-13T06:04:16.731Z,1009.48
2016-09-13T06:05:16.717Z,1009.46
2016-09-13T06:06:16.703Z,1009.46
2016-09-13T06:07:16.687Z,1009.47
2016-09-13T06:08:16.674Z,1009.48
2016-09-13T06:09:16.659Z,1009.5
2016-09-13T06:10:16.644Z,1009.49
2016-09-13T06:11:16.629Z,1009.49
2016-09-13T06:12:16.615Z,1009.48
2016-09-13T06:13:16.599Z,1009.46
2016-09-13T06:14:16.585Z,1009.48
2016-09-13T06:15:16.571Z,1009.5
2016-09-13T06:16:16.554Z,1009.48
2016-09-13T06:17:16.539Z,1009.53
2016-09-13T06:18:16.525Z,1009.5
2016-09-13T06:19:16.508Z,1009.57
2016-09-13T06:20:16.496Z,1009.53
2016-09-13T06:21:16.479Z,1009.52
2016-09-13T06:22:16.466Z,1009.58
2016-09-13T06:23:16.450Z,1009.54
2016-09-13T06:24:16.438Z,1009.54
2016-09-13T06:25:16.420Z,1009.53
2016-09-13T06:26:16.405Z,1009.5
2016-09-13T06:27:16.389Z,1009.55
2016-09-13T06:28:16.376Z,1009.53
2016-09-13T06:29:16.363Z,1009.51
2016-09-13T06:30:16.346Z,1009.53
2016-09-13T06:31:16.335Z,1009.49
2016-09-13T06:32:16.321Z,1009.53
2016-09-13T06:33:16.305Z,1009.55
2016-09-13T06:34:16.289Z,1009.56
2016-09-13T06:35:16.274Z,1009.51
2016-09-13T06:36:16.263Z,1009.53
2016-09-13T06:37:16.246Z,1009.52
2016-09-13T06:38:16.234Z,1009.53
2016-09-13T06:39:16.213Z,1009.53
2016-09-13T06:40:16.200Z,1009.52
2016-09-13T06:41:16.187Z,1009.53
2016-09-13T06:42:16.173Z,1009.53
2016-09-13T06:43:16.156Z,1009.57
2016-09-13T06:44:16.141Z,1009.58
2016-09-13T06:45:16.129Z,1009.6
2016-09-13T06:46:16.114Z,1009.61
2016-09-13T06:47:16.099Z,1009.6
2016-09-13T06:48:16.084Z,1009.57
2016-09-13T06:49:16.066Z,1009.63
2016-09-13T06:50:16.055Z,1009.62
2016-09-13T06:51:16.038Z,1009.6
2016-09-13T06:52:16.023Z,1009.6
2016-09-13T06:53:16.008Z,1009.61
2016-09-13T06:54:15.995Z,1009.66
2016-09-13T06:55:15.979Z,1009.68
2016-09-13T06:56:15.966Z,1009.64
2016-09-13T06:57:15.951Z,1009.65
2016-09-13T06:58:15.936Z,1009.64
2016-09-13T06:59:15.920Z,1009.66
2016-09-13T07:00:15.905Z,1009.62
2016-09-13T07:01:15.890Z,1009.66
2016-09-13T07:02:15.877Z,1009.63
2016-09-13T07:03:15.871Z,1009.63
2016-09-13T07:04:15.846Z,1009.65
2016-09-13T07:05:15.834Z,1009.64
2016-09-13T07:06:15.819Z,1009.66
2016-09-13T07:07:15.802Z,1009.65
2016-09-13T07:08:15.786Z,1009.62
2016-09-13T07:09:15.775Z,1009.62
2016-09-13T07:10:15.760Z,1009.61
2016-09-13T07:11:15.745Z,1009.65
2016-09-13T07:12:15.734Z,1009.64
2016-09-13T07:13:15.715Z,1009.68
2016-09-13T07:14:15.702Z,1009.65
2016-09-13T07:15:15.687Z,1009.66
2016-09-13T07:16:15.672Z,1009.64
2016-09-13T07:17:15.658Z,1009.64
2016-09-13T07:18:15.649Z,1009.61
2016-09-13T07:19:15.629Z,1009.6
2016-09-13T07:20:15.611Z,1009.59
2016-09-13T07:21:15.599Z,1009.59
2016-09-13T07:22:15.583Z,1009.58
2016-09-13T07:23:15.574Z,1009.58
2016-09-13T07:24:15.554Z,1009.57
2016-09-13T07:25:15.541Z,1009.61
2016-09-13T07:26:15.524Z,1009.63
2016-09-13T07:27:15.516Z,1009.63
2016-09-13T07:28:15.499Z,1009.66
2016-09-13T07:29:15.484Z,1009.66
2016-09-13T07:30:15.467Z,1009.65
2016-09-13T07:31:15.453Z,1009.66
2016-09-13T07:32:15.438Z,1009.71
2016-09-13T07:33:15.427Z,1009.66
2016-09-13T07:34:15.410Z,1009.65
2016-09-13T07:35:15.401Z,1009.66
2016-09-13T07:36:15.382Z,1009.65
2016-09-13T07:37:15.366Z,1009.67
2016-09-13T07:38:15.350Z,1009.65
2016-09-13T07:39:15.339Z,1009.68
2016-09-13T07:40:15.322Z,1009.65
2016-09-13T07:41:15.308Z,1009.68
2016-09-13T07:42:15.290Z,1009.67
2016-09-13T07:43:15.286Z,1009.71
2016-09-13T07:44:15.264Z,1009.72
2016-09-13T07:45:15.249Z,1009.66
2016-09-13T07:46:15.233Z,1009.67
2016-09-13T07:47:15.218Z,1009.62
2016-09-13T07:48:15.206Z,1009.69
2016-09-13T07:49:15.189Z,1009.65
2016-09-13T07:50:15.173Z,1009.68
2016-09-13T07:51:15.160Z,1009.64
2016-09-13T07:52:15.149Z,1009.67
2016-09-13T07:53:15.130Z,1009.64
2016-09-13T07:54:15.124Z,1009.65
2016-09-13T07:55:15.104Z,1009.69
2016-09-13T08:12:19.029Z,1009.67
2016-09-13T08:13:19.011Z,1009.72
2016-09-13T08:14:18.994Z,1009.73
2016-09-13T08:15:18.980Z,1009.67
2016-09-13T08:16:18.970Z,1009.75
2016-09-13T08:17:18.950Z,1009.7
2016-09-13T08:18:18.935Z,1009.78
2016-09-13T08:19:18.923Z,1009.72
2016-09-13T08:20:18.909Z,1009.74
2016-09-13T08:21:18.893Z,1009.74
2016-09-13T08:25:33.397Z,1009.74
2016-09-13T08:26:32.783Z,1009.72
2016-09-13T08:27:32.763Z,1009.7
2016-09-13T08:28:32.746Z,1009.71
2016-09-13T08:29:32.732Z,1009.73
2016-09-13T08:30:32.720Z,1009.77
2016-09-13T08:31:32.708Z,1009.74
2016-09-13T08:32:32.690Z,1009.74
2016-09-13T08:33:32.675Z,1009.75
2016-09-13T08:34:32.663Z,1009.75
2016-09-13T08:35:32.648Z,1009.73
2016-09-13T08:36:32.631Z,1009.75
2016-09-13T08:37:32.623Z,1009.73
2016-09-13T08:38:32.605Z,1009.73
2016-09-13T08:39:32.594Z,1009.7
2016-09-13T08:40:32.577Z,1009.68
2016-09-13T08:41:32.561Z,1009.73
2016-09-13T08:42:32.548Z,1009.77
2016-09-13T08:43:32.535Z,1009.69
2016-09-13T08:44:32.520Z,1009.68
2016-09-13T08:45:32.508Z,1009.7
2016-09-13T08:46:32.492Z,1009.71
2016-09-13T08:47:32.477Z,1009.66
2016-09-13T08:48:32.459Z,1009.66
2016-09-13T08:49:32.447Z,1009.66
2016-09-13T08:50:32.432Z,1009.65
2016-09-13T08:51:32.420Z,1009.63
2016-09-13T08:52:32.406Z,1009.65
2016-09-13T08:53:32.389Z,1009.64
2016-09-13T08:54:32.375Z,1009.63
2016-09-13T08:55:32.362Z,1009.66
2016-09-13T08:56:32.348Z,1009.63
2016-09-13T08:57:32.336Z,1009.59
2016-09-13T08:58:32.326Z,1009.6
2016-09-13T08:59:32.307Z,1009.62
2016-09-13T09:00:32.293Z,1009.59
2016-09-13T09:01:32.279Z,1009.61
2016-09-13T09:02:32.280Z,1009.64
2016-09-13T09:03:32.250Z,1009.6
2016-09-13T09:04:32.235Z,1009.61
2016-09-13T09:05:32.220Z,1009.61
2016-09-13T09:06:32.203Z,1009.61
2016-09-13T09:07:32.190Z,1009.61
2016-09-13T09:08:32.179Z,1009.57
2016-09-13T09:09:32.164Z,1009.59
2016-09-13T09:10:32.146Z,1009.63
2016-09-13T09:11:32.135Z,1009.58
2016-09-13T09:12:32.119Z,1009.59
2016-09-13T09:13:32.104Z,1009.58
2016-09-13T09:14:32.091Z,1009.54
2016-09-13T09:15:32.076Z,1009.59
2016-09-13T09:16:32.063Z,1009.56
2016-09-13T09:17:32.048Z,1009.61
2016-09-13T09:18:32.032Z,1009.58
2016-09-13T09:19:32.023Z,1009.55
2016-09-13T09:20:32.003Z,1009.58
2016-09-13T09:21:31.991Z,1009.53
2016-09-13T09:22:31.978Z,1009.52
2016-09-13T09:23:31.960Z,1009.58
2016-09-13T09:24:31.945Z,1009.55
2016-09-13T09:25:31.931Z,1009.55
2016-09-13T09:26:31.914Z,1009.51
2016-09-13T09:27:31.900Z,1009.49
2016-09-13T09:28:31.877Z,1009.44
2016-09-13T09:29:31.862Z,1009.46
2016-09-13T09:30:31.858Z,1009.47
2016-09-13T09:31:31.833Z,1009.43
2016-09-13T09:32:31.831Z,1009.4
2016-09-13T09:33:31.815Z,1009.38
2016-09-13T09:34:31.802Z,1009.38
2016-09-13T09:35:31.790Z,1009.38
2016-09-13T09:36:31.772Z,1009.39
2016-09-13T09:37:31.764Z,1009.35
2016-09-13T09:38:31.743Z,1009.36
2016-09-13T09:39:31.733Z,1009.32
2016-09-13T09:40:31.718Z,1009.37
2016-09-13T09:41:31.701Z,1009.34
2016-09-13T09:42:31.687Z,1009.33
2016-09-13T09:43:31.671Z,1009.33
2016-09-13T09:44:31.659Z,1009.29
2016-09-13T09:45:31.647Z,1009.3
2016-09-13T09:46:31.630Z,1009.35
2016-09-13T09:47:31.624Z,1009.3
2016-09-13T09:48:31.600Z,1009.31
2016-09-13T09:49:31.587Z,1009.32
2016-09-13T09:50:31.572Z,1009.3
2016-09-13T09:51:31.565Z,1009.28
2016-09-13T09:52:31.543Z,1009.3
2016-09-13T09:53:31.529Z,1009.32
2016-09-13T09:54:31.512Z,1009.27
2016-09-13T09:55:31.500Z,1009.29
2016-09-13T09:56:31.486Z,1009.28
2016-09-13T09:57:31.471Z,1009.26
2016-09-13T09:58:31.457Z,1009.24
2016-09-13T09:59:31.444Z,1009.21
2016-09-13T10:00:31.429Z,1009.21
2016-09-13T10:01:31.413Z,1009.2
2016-09-13T10:02:31.398Z,1009.17
2016-09-13T10:03:31.389Z,1009.19
2016-09-13T10:04:31.370Z,1009.18
2016-09-13T10:05:31.357Z,1009.15
2016-09-13T10:06:31.344Z,1009.17
2016-09-13T10:07:31.329Z,1009.17
2016-09-13T10:08:31.316Z,1009.14
2016-09-13T10:09:31.307Z,1009.08
2016-09-13T10:10:31.289Z,1009.12
2016-09-13T10:11:31.276Z,1009.09
2016-09-13T10:12:31.258Z,1009.09
2016-09-13T10:13:31.248Z,1009.08
2016-09-13T10:14:31.231Z,1009.05
2016-09-13T10:15:31.216Z,1009.06
2016-09-13T10:16:31.204Z,1009.06
2016-09-13T10:17:31.190Z,1009.07
2016-09-13T10:18:31.175Z,1009.02
2016-09-13T10:19:31.160Z,1009.05
2016-09-13T10:20:31.147Z,1009.03
2016-09-13T10:21:31.132Z,1009
2016-09-13T10:22:31.120Z,1009.03
2016-09-13T10:23:31.104Z,1008.99
2016-09-13T10:24:31.088Z,1009.03
2016-09-13T10:25:31.075Z,1009
2016-09-13T10:26:31.062Z,1008.98
2016-09-13T10:27:31.046Z,1008.98
2016-09-13T10:28:31.035Z,1009.01
2016-09-13T10:29:31.020Z,1009.01
2016-09-13T10:30:31.005Z,1008.98
2016-09-13T10:31:30.989Z,1008.96
2016-09-13T10:32:30.977Z,1008.94
2016-09-13T10:33:30.961Z,1008.96
2016-09-13T10:34:30.948Z,1008.93
2016-09-13T10:35:30.933Z,1008.97
2016-09-13T10:36:30.921Z,1008.97
2016-09-13T10:37:30.905Z,1008.98
2016-09-13T10:38:30.890Z,1008.96
2016-09-13T10:39:30.879Z,1008.94
2016-09-13T10:40:30.860Z,1008.98
2016-09-13T10:41:30.848Z,1009
2016-09-13T10:42:30.835Z,1008.97
2016-09-13T10:43:30.818Z,1008.96
2016-09-13T10:44:30.804Z,1008.95
2016-09-13T10:45:30.810Z,1008.92
2016-09-13T10:46:30.776Z,1008.92
2016-09-13T10:47:30.761Z,1008.92
2016-09-13T10:48:30.750Z,1008.87
2016-09-13T10:49:30.733Z,1008.89
2016-09-13T10:50:30.721Z,1008.91
2016-09-13T10:51:30.706Z,1008.87
2016-09-13T10:52:30.690Z,1008.92
2016-09-13T10:53:30.676Z,1008.93
2016-09-13T10:54:30.665Z,1008.89
2016-09-13T10:55:30.648Z,1008.87
2016-09-13T10:56:30.632Z,1008.86
2016-09-13T10:57:30.622Z,1008.88
2016-09-13T10:58:30.607Z,1008.88
2016-09-13T10:59:30.593Z,1008.92
2016-09-13T11:00:30.575Z,1008.85
2016-09-13T11:01:30.563Z,1008.87
2016-09-13T11:02:30.549Z,1008.85
2016-09-13T11:03:30.534Z,1008.88
2016-09-13T11:04:30.521Z,1008.91
2016-09-13T11:05:30.508Z,1008.86
2016-09-13T11:06:30.496Z,1008.79
2016-09-13T11:07:30.481Z,1008.8
2016-09-13T11:08:30.462Z,1008.8
2016-09-13T11:09:30.452Z,1008.79
2016-09-13T11:10:30.436Z,1008.79
2016-09-13T11:11:30.425Z,1008.76
2016-09-13T11:12:30.404Z,1008.77
2016-09-13T11:13:30.392Z,1008.76
2016-09-13T11:14:30.379Z,1008.76
2016-09-13T11:15:30.367Z,1008.72
2016-09-13T11:16:30.348Z,1008.74
2016-09-13T11:17:30.342Z,1008.72
2016-09-13T11:18:30.320Z,1008.73
2016-09-13T11:19:30.308Z,1008.74
2016-09-13T11:20:30.302Z,1008.7
2016-09-13T11:21:30.279Z,1008.68
2016-09-13T11:22:30.266Z,1008.67
2016-09-13T11:23:30.255Z,1008.66
2016-09-13T11:24:30.237Z,1008.66
2016-09-13T11:25:30.219Z,1008.63
2016-09-13T11:26:30.210Z,1008.66
2016-09-13T11:27:30.193Z,1008.68
2016-09-13T11:28:30.179Z,1008.61
2016-09-13T11:29:30.166Z,1008.64
2016-09-13T11:30:30.149Z,1008.66
2016-09-13T11:31:30.134Z,1008.62
2016-09-13T11:32:30.122Z,1008.63
2016-09-13T11:33:30.107Z,1008.62
2016-09-13T11:34:30.093Z,1008.6
2016-09-13T11:35:30.078Z,1008.61
2016-09-13T11:36:30.064Z,1008.63
2016-09-13T11:37:30.049Z,1008.56
2016-09-13T11:38:30.034Z,1008.53
2016-09-13T11:39:30.021Z,1008.56
2016-09-13T11:40:30.007Z,1008.54
2016-09-13T11:41:29.994Z,1008.5
2016-09-13T11:42:29.979Z,1008.52
2016-09-13T11:43:29.968Z,1008.52
2016-09-13T11:44:29.950Z,1008.51
2016-09-13T11:45:29.935Z,1008.52
2016-09-13T11:46:29.920Z,1008.47
2016-09-13T11:47:29.906Z,1008.47
2016-09-13T11:48:29.895Z,1008.51
2016-09-13T11:49:29.882Z,1008.49
2016-09-13T11:50:29.863Z,1008.49
2016-09-13T11:51:29.854Z,1008.46
2016-09-13T11:52:29.836Z,1008.49
2016-09-13T11:53:29.823Z,1008.51
2016-09-13T11:54:29.807Z,1008.46
2016-09-13T11:55:29.796Z,1008.46
2016-09-13T11:56:29.780Z,1008.45
2016-09-13T11:57:29.766Z,1008.48
2016-09-13T11:58:29.750Z,1008.46
2016-09-13T11:59:29.735Z,1008.48
2016-09-13T12:00:29.721Z,1008.45
2016-09-13T12:01:29.705Z,1008.45
2016-09-13T12:02:29.689Z,1008.42
2016-09-13T12:03:29.676Z,1008.46
2016-09-13T12:04:29.663Z,1008.43
2016-09-13T12:05:29.647Z,1008.46
2016-09-13T12:06:29.638Z,1008.46
2016-09-13T12:07:29.620Z,1008.42
2016-09-13T12:08:29.605Z,1008.39
2016-09-13T12:09:29.592Z,1008.37
2016-09-13T12:10:29.578Z,1008.35
2016-09-13T12:11:29.563Z,1008.35
2016-09-13T12:12:29.547Z,1008.35
2016-09-13T12:13:29.531Z,1008.36
2016-09-13T12:14:29.518Z,1008.34
2016-09-13T12:15:29.503Z,1008.3
2016-09-13T12:16:29.491Z,1008.29
2016-09-13T12:17:29.474Z,1008.26
2016-09-13T12:18:29.460Z,1008.31
2016-09-13T12:19:29.447Z,1008.28
2016-09-13T12:20:29.433Z,1008.3
2016-09-13T12:21:29.423Z,1008.32
2016-09-13T12:22:29.403Z,1008.27
2016-09-13T12:23:29.389Z,1008.32
2016-09-13T12:24:29.376Z,1008.28
2016-09-13T12:25:29.367Z,1008.26
2016-09-13T12:26:29.348Z,1008.24
2016-09-13T12:27:29.333Z,1008.3